sensor_id;sensor_type;location;lat;lon;timestamp;P1;durP1;ratioP1;P2;durP2;ratioP2
17854;SDS011;9053;53.358;6.382;2023-07-24T00:00:57;8.13;;;5.00;;
17854;SDS011;9053;53.358;6.382;2023-07-24T00:03:28;7.63;;;5.15;;
17854;SDS011;9053;53.358;6.382;2023-07-24T00:06:01;10.25;;;5.82;;
17854;SDS011;9053;53.358;6.382;2023-07-24T00:08:31;8.95;;;5.20;;
17854;SDS011;9053;53.358;6.382;2023-07-24T00:11:01;6.90;;;4.85;;
17854;SDS011;9053;53.358;6.382;2023-07-24T00:13:32;9.52;;;5.13;;
17854;SDS011;9053;53.358;6.382;2023-07-24T00:16:05;8.60;;;4.75;;
17854;SDS011;9053;53.358;6.382;2023-07-24T00:18:36;8.93;;;5.10;;
17854;SDS011;9053;53.358;6.382;2023-07-24T00:21:08;9.30;;;4.70;;
17854;SDS011;9053;53.358;6.382;2023-07-24T00:23:40;13.35;;;6.10;;
17854;SDS011;9053;53.358;6.382;2023-07-24T00:26:10;8.45;;;5.68;;
17854;SDS011;9053;53.358;6.382;2023-07-24T00:28:39;8.25;;;5.03;;
17854;SDS011;9053;53.358;6.382;2023-07-24T00:31:09;8.73;;;5.45;;
17854;SDS011;9053;53.358;6.382;2023-07-24T00:33:39;10.98;;;5.65;;
17854;SDS011;9053;53.358;6.382;2023-07-24T00:36:12;8.10;;;5.15;;
17854;SDS011;9053;53.358;6.382;2023-07-24T00:38:42;7.88;;;4.78;;
17854;SDS011;9053;53.358;6.382;2023-07-24T00:41:11;8.77;;;4.50;;
17854;SDS011;9053;53.358;6.382;2023-07-24T00:43:41;6.65;;;4.20;;
17854;SDS011;9053;53.358;6.382;2023-07-24T00:46:12;11.20;;;5.30;;
17854;SDS011;9053;53.358;6.382;2023-07-24T00:48:43;9.65;;;5.45;;
17854;SDS011;9053;53.358;6.382;2023-07-24T00:51:16;9.02;;;4.93;;
17854;SDS011;9053;53.358;6.382;2023-07-24T00:53:46;6.88;;;4.68;;
17854;SDS011;9053;53.358;6.382;2023-07-24T00:56:16;8.52;;;4.90;;
17854;SDS011;9053;53.358;6.382;2023-07-24T00:58:46;6.68;;;4.20;;
17854;SDS011;9053;53.358;6.382;2023-07-24T01:01:20;6.68;;;4.07;;
17854;SDS011;9053;53.358;6.382;2023-07-24T01:03:52;8.20;;;4.45;;
17854;SDS011;9053;53.358;6.382;2023-07-24T01:06:26;8.55;;;4.55;;
17854;SDS011;9053;53.358;6.382;2023-07-24T01:08:56;7.22;;;4.32;;
17854;SDS011;9053;53.358;6.382;2023-07-24T01:11:27;10.70;;;4.88;;
17854;SDS011;9053;53.358;6.382;2023-07-24T01:14:04;10.88;;;4.75;;
17854;SDS011;9053;53.358;6.382;2023-07-24T01:16:40;9.32;;;4.57;;
17854;SDS011;9053;53.358;6.382;2023-07-24T01:19:12;6.25;;;3.92;;
17854;SDS011;9053;53.358;6.382;2023-07-24T01:21:57;7.88;;;4.95;;
17854;SDS011;9053;53.358;6.382;2023-07-24T01:24:33;9.10;;;5.28;;
17854;SDS011;9053;53.358;6.382;2023-07-24T01:27:17;10.82;;;5.28;;
17854;SDS011;9053;53.358;6.382;2023-07-24T01:29:49;13.57;;;5.95;;
17854;SDS011;9053;53.358;6.382;2023-07-24T01:32:19;11.65;;;4.80;;
17854;SDS011;9053;53.358;6.382;2023-07-24T01:34:50;9.82;;;5.30;;
17854;SDS011;9053;53.358;6.382;2023-07-24T01:37:20;9.25;;;5.57;;
17854;SDS011;9053;53.358;6.382;2023-07-24T01:39:54;10.02;;;5.78;;
17854;SDS011;9053;53.358;6.382;2023-07-24T01:42:29;9.23;;;5.05;;
17854;SDS011;9053;53.358;6.382;2023-07-24T01:44:59;9.02;;;5.15;;
17854;SDS011;9053;53.358;6.382;2023-07-24T01:47:31;9.82;;;5.78;;
17854;SDS011;9053;53.358;6.382;2023-07-24T01:50:01;10.18;;;5.40;;
17854;SDS011;9053;53.358;6.382;2023-07-24T01:52:31;11.93;;;6.43;;
17854;SDS011;9053;53.358;6.382;2023-07-24T01:55:01;9.30;;;5.22;;
17854;SDS011;9053;53.358;6.382;2023-07-24T01:57:34;9.95;;;5.30;;
17854;SDS011;9053;53.358;6.382;2023-07-24T02:00:06;11.13;;;5.93;;
17854;SDS011;9053;53.358;6.382;2023-07-24T02:02:36;10.65;;;5.97;;
17854;SDS011;9053;53.358;6.382;2023-07-24T02:05:07;12.98;;;6.57;;
17854;SDS011;9053;53.358;6.382;2023-07-24T02:07:38;9.55;;;6.10;;
17854;SDS011;9053;53.358;6.382;2023-07-24T02:10:08;9.57;;;6.10;;
17854;SDS011;9053;53.358;6.382;2023-07-24T02:12:41;9.55;;;5.22;;
17854;SDS011;9053;53.358;6.382;2023-07-24T02:15:11;8.63;;;5.97;;
17854;SDS011;9053;53.358;6.382;2023-07-24T02:17:41;7.97;;;5.30;;
17854;SDS011;9053;53.358;6.382;2023-07-24T02:20:11;9.45;;;5.85;;
17854;SDS011;9053;53.358;6.382;2023-07-24T02:22:41;9.68;;;5.95;;
17854;SDS011;9053;53.358;6.382;2023-07-24T02:25:11;10.45;;;5.45;;
17854;SDS011;9053;53.358;6.382;2023-07-24T02:27:43;11.15;;;5.88;;
17854;SDS011;9053;53.358;6.382;2023-07-24T02:30:15;8.75;;;5.70;;
17854;SDS011;9053;53.358;6.382;2023-07-24T02:32:45;9.43;;;6.03;;
17854;SDS011;9053;53.358;6.382;2023-07-24T02:35:15;9.18;;;5.68;;
17854;SDS011;9053;53.358;6.382;2023-07-24T02:37:45;13.40;;;5.95;;
17854;SDS011;9053;53.358;6.382;2023-07-24T02:40:15;9.73;;;5.47;;
17854;SDS011;9053;53.358;6.382;2023-07-24T02:42:48;8.05;;;5.57;;
17854;SDS011;9053;53.358;6.382;2023-07-24T02:45:17;9.02;;;5.65;;
17854;SDS011;9053;53.358;6.382;2023-07-24T02:47:47;7.40;;;5.60;;
17854;SDS011;9053;53.358;6.382;2023-07-24T02:50:17;9.00;;;5.60;;
17854;SDS011;9053;53.358;6.382;2023-07-24T02:52:47;9.15;;;5.50;;
17854;SDS011;9053;53.358;6.382;2023-07-24T02:55:17;8.10;;;5.78;;
17854;SDS011;9053;53.358;6.382;2023-07-24T02:57:49;7.30;;;5.15;;
17854;SDS011;9053;53.358;6.382;2023-07-24T03:00:21;7.88;;;5.18;;
17854;SDS011;9053;53.358;6.382;2023-07-24T03:02:52;7.57;;;5.13;;
17854;SDS011;9053;53.358;6.382;2023-07-24T03:05:22;6.97;;;4.50;;
17854;SDS011;9053;53.358;6.382;2023-07-24T03:07:52;9.32;;;5.75;;
17854;SDS011;9053;53.358;6.382;2023-07-24T03:10:22;6.57;;;4.88;;
17854;SDS011;9053;53.358;6.382;2023-07-24T03:12:54;9.00;;;5.35;;
17854;SDS011;9053;53.358;6.382;2023-07-24T03:15:24;10.65;;;5.90;;
17854;SDS011;9053;53.358;6.382;2023-07-24T03:17:54;9.77;;;6.28;;
17854;SDS011;9053;53.358;6.382;2023-07-24T03:20:24;7.63;;;5.35;;
17854;SDS011;9053;53.358;6.382;2023-07-24T03:22:54;8.93;;;5.78;;
17854;SDS011;9053;53.358;6.382;2023-07-24T03:25:24;8.98;;;5.60;;
17854;SDS011;9053;53.358;6.382;2023-07-24T03:27:56;8.30;;;5.30;;
17854;SDS011;9053;53.358;6.382;2023-07-24T03:30:26;10.00;;;5.22;;
17854;SDS011;9053;53.358;6.382;2023-07-24T03:32:56;9.35;;;5.47;;
17854;SDS011;9053;53.358;6.382;2023-07-24T03:35:27;9.27;;;5.80;;
17854;SDS011;9053;53.358;6.382;2023-07-24T03:37:57;11.30;;;5.97;;
17854;SDS011;9053;53.358;6.382;2023-07-24T03:40:27;8.20;;;5.45;;
17854;SDS011;9053;53.358;6.382;2023-07-24T03:43:00;6.63;;;5.22;;
17854;SDS011;9053;53.358;6.382;2023-07-24T03:45:30;6.57;;;4.85;;
17854;SDS011;9053;53.358;6.382;2023-07-24T03:48:00;8.93;;;5.35;;
17854;SDS011;9053;53.358;6.382;2023-07-24T03:50:30;7.40;;;5.22;;
17854;SDS011;9053;53.358;6.382;2023-07-24T03:53:00;8.90;;;5.78;;
17854;SDS011;9053;53.358;6.382;2023-07-24T03:55:30;7.88;;;4.78;;
17854;SDS011;9053;53.358;6.382;2023-07-24T03:58:02;13.02;;;5.72;;
17854;SDS011;9053;53.358;6.382;2023-07-24T04:00:32;9.55;;;5.57;;
17854;SDS011;9053;53.358;6.382;2023-07-24T04:03:03;7.18;;;5.13;;
17854;SDS011;9053;53.358;6.382;2023-07-24T04:05:33;6.93;;;4.70;;
17854;SDS011;9053;53.358;6.382;2023-07-24T04:08:04;8.45;;;4.88;;
17854;SDS011;9053;53.358;6.382;2023-07-24T04:10:34;8.23;;;5.05;;
17854;SDS011;9053;53.358;6.382;2023-07-24T04:13:06;6.45;;;4.60;;
17854;SDS011;9053;53.358;6.382;2023-07-24T04:15:36;7.00;;;4.72;;
17854;SDS011;9053;53.358;6.382;2023-07-24T04:18:06;7.07;;;4.68;;
17854;SDS011;9053;53.358;6.382;2023-07-24T04:20:36;6.70;;;4.38;;
17854;SDS011;9053;53.358;6.382;2023-07-24T04:23:06;8.38;;;4.78;;
17854;SDS011;9053;53.358;6.382;2023-07-24T04:25:36;8.63;;;4.57;;
17854;SDS011;9053;53.358;6.382;2023-07-24T04:28:09;10.98;;;5.20;;
17854;SDS011;9053;53.358;6.382;2023-07-24T04:30:39;8.13;;;5.03;;
17854;SDS011;9053;53.358;6.382;2023-07-24T04:33:09;6.93;;;4.20;;
17854;SDS011;9053;53.358;6.382;2023-07-24T04:35:39;7.90;;;4.70;;
17854;SDS011;9053;53.358;6.382;2023-07-24T04:38:09;8.32;;;4.32;;
17854;SDS011;9053;53.358;6.382;2023-07-24T04:40:39;7.38;;;4.38;;
17854;SDS011;9053;53.358;6.382;2023-07-24T04:43:11;8.80;;;5.15;;
17854;SDS011;9053;53.358;6.382;2023-07-24T04:45:41;6.38;;;4.18;;
17854;SDS011;9053;53.358;6.382;2023-07-24T04:48:11;8.98;;;4.90;;
17854;SDS011;9053;53.358;6.382;2023-07-24T04:50:41;6.15;;;3.80;;
17854;SDS011;9053;53.358;6.382;2023-07-24T04:53:11;7.70;;;4.18;;
17854;SDS011;9053;53.358;6.382;2023-07-24T04:55:41;8.40;;;4.65;;
17854;SDS011;9053;53.358;6.382;2023-07-24T04:58:13;7.70;;;4.65;;
17854;SDS011;9053;53.358;6.382;2023-07-24T05:00:45;6.30;;;3.80;;
17854;SDS011;9053;53.358;6.382;2023-07-24T05:03:15;6.68;;;3.92;;
17854;SDS011;9053;53.358;6.382;2023-07-24T05:05:47;6.25;;;4.00;;
17854;SDS011;9053;53.358;6.382;2023-07-24T05:08:18;9.25;;;4.38;;
17854;SDS011;9053;53.358;6.382;2023-07-24T05:10:53;5.82;;;4.13;;
17854;SDS011;9053;53.358;6.382;2023-07-24T05:13:26;6.47;;;4.60;;
17854;SDS011;9053;53.358;6.382;2023-07-24T05:15:56;7.78;;;4.25;;
17854;SDS011;9053;53.358;6.382;2023-07-24T05:18:26;5.85;;;4.40;;
17854;SDS011;9053;53.358;6.382;2023-07-24T05:20:56;6.90;;;4.25;;
17854;SDS011;9053;53.358;6.382;2023-07-24T05:23:26;6.95;;;4.57;;
17854;SDS011;9053;53.358;6.382;2023-07-24T05:25:56;7.45;;;4.80;;
17854;SDS011;9053;53.358;6.382;2023-07-24T05:28:31;5.78;;;4.38;;
17854;SDS011;9053;53.358;6.382;2023-07-24T05:31:01;6.75;;;5.00;;
17854;SDS011;9053;53.358;6.382;2023-07-24T05:33:32;6.68;;;4.97;;
17854;SDS011;9053;53.358;6.382;2023-07-24T05:36:03;7.45;;;4.80;;
17854;SDS011;9053;53.358;6.382;2023-07-24T05:38:33;6.55;;;4.57;;
17854;SDS011;9053;53.358;6.382;2023-07-24T05:41:03;6.47;;;4.30;;
17854;SDS011;9053;53.358;6.382;2023-07-24T05:43:36;7.05;;;4.28;;
17854;SDS011;9053;53.358;6.382;2023-07-24T05:46:05;7.07;;;4.43;;
17854;SDS011;9053;53.358;6.382;2023-07-24T05:48:35;11.25;;;5.03;;
17854;SDS011;9053;53.358;6.382;2023-07-24T05:51:05;7.00;;;4.25;;
17854;SDS011;9053;53.358;6.382;2023-07-24T05:53:35;6.35;;;4.43;;
17854;SDS011;9053;53.358;6.382;2023-07-24T05:56:05;6.20;;;4.43;;
17854;SDS011;9053;53.358;6.382;2023-07-24T05:58:37;7.63;;;4.90;;
17854;SDS011;9053;53.358;6.382;2023-07-24T06:01:08;6.80;;;4.28;;
17854;SDS011;9053;53.358;6.382;2023-07-24T06:03:38;6.82;;;5.10;;
17854;SDS011;9053;53.358;6.382;2023-07-24T06:06:08;8.43;;;4.65;;
17854;SDS011;9053;53.358;6.382;2023-07-24T06:08:38;6.78;;;4.45;;
17854;SDS011;9053;53.358;6.382;2023-07-24T06:11:08;7.57;;;5.13;;
17854;SDS011;9053;53.358;6.382;2023-07-24T06:13:41;8.52;;;4.35;;
17854;SDS011;9053;53.358;6.382;2023-07-24T06:16:11;7.05;;;4.63;;
17854;SDS011;9053;53.358;6.382;2023-07-24T06:18:40;7.93;;;4.88;;
17854;SDS011;9053;53.358;6.382;2023-07-24T06:21:10;6.75;;;5.18;;
17854;SDS011;9053;53.358;6.382;2023-07-24T06:23:40;7.05;;;4.57;;
17854;SDS011;9053;53.358;6.382;2023-07-24T06:26:10;8.55;;;4.68;;
17854;SDS011;9053;53.358;6.382;2023-07-24T06:28:43;6.47;;;4.30;;
17854;SDS011;9053;53.358;6.382;2023-07-24T06:31:13;8.80;;;5.32;;
17854;SDS011;9053;53.358;6.382;2023-07-24T06:33:40;6.63;;;4.53;;
17854;SDS011;9053;53.358;6.382;2023-07-24T06:36:10;6.97;;;4.95;;
17854;SDS011;9053;53.358;6.382;2023-07-24T06:38:40;7.18;;;4.90;;
17854;SDS011;9053;53.358;6.382;2023-07-24T06:41:10;8.75;;;5.30;;
17854;SDS011;9053;53.358;6.382;2023-07-24T06:43:44;9.82;;;5.40;;
17854;SDS011;9053;53.358;6.382;2023-07-24T06:46:14;10.07;;;5.03;;
17854;SDS011;9053;53.358;6.382;2023-07-24T06:48:45;6.10;;;4.70;;
17854;SDS011;9053;53.358;6.382;2023-07-24T06:51:15;6.68;;;4.43;;
17854;SDS011;9053;53.358;6.382;2023-07-24T06:53:45;9.15;;;4.72;;
17854;SDS011;9053;53.358;6.382;2023-07-24T06:56:15;8.35;;;4.60;;
17854;SDS011;9053;53.358;6.382;2023-07-24T06:58:47;6.75;;;4.22;;
17854;SDS011;9053;53.358;6.382;2023-07-24T07:01:17;6.18;;;4.38;;
17854;SDS011;9053;53.358;6.382;2023-07-24T07:03:47;7.60;;;4.32;;
17854;SDS011;9053;53.358;6.382;2023-07-24T07:06:17;7.97;;;4.75;;
17854;SDS011;9053;53.358;6.382;2023-07-24T07:08:50;9.07;;;4.97;;
17854;SDS011;9053;53.358;6.382;2023-07-24T07:11:20;8.50;;;4.68;;
17854;SDS011;9053;53.358;6.382;2023-07-24T07:13:52;8.25;;;4.63;;
17854;SDS011;9053;53.358;6.382;2023-07-24T07:16:22;6.30;;;4.20;;
17854;SDS011;9053;53.358;6.382;2023-07-24T07:18:52;8.30;;;4.53;;
17854;SDS011;9053;53.358;6.382;2023-07-24T07:21:22;8.65;;;4.53;;
17854;SDS011;9053;53.358;6.382;2023-07-24T07:23:52;10.48;;;5.13;;
17854;SDS011;9053;53.358;6.382;2023-07-24T07:26:22;5.75;;;4.07;;
17854;SDS011;9053;53.358;6.382;2023-07-24T07:28:54;7.50;;;4.10;;
17854;SDS011;9053;53.358;6.382;2023-07-24T07:31:24;9.63;;;4.50;;
17854;SDS011;9053;53.358;6.382;2023-07-24T07:33:54;6.53;;;4.35;;
17854;SDS011;9053;53.358;6.382;2023-07-24T07:36:25;6.68;;;4.10;;
17854;SDS011;9053;53.358;6.382;2023-07-24T07:38:55;7.88;;;4.70;;
17854;SDS011;9053;53.358;6.382;2023-07-24T07:41:25;8.95;;;4.93;;
17854;SDS011;9053;53.358;6.382;2023-07-24T07:43:57;9.35;;;4.70;;
17854;SDS011;9053;53.358;6.382;2023-07-24T07:46:28;8.32;;;4.45;;
17854;SDS011;9053;53.358;6.382;2023-07-24T07:48:58;8.57;;;4.82;;
17854;SDS011;9053;53.358;6.382;2023-07-24T07:51:28;7.25;;;4.47;;
17854;SDS011;9053;53.358;6.382;2023-07-24T07:53:58;6.20;;;3.90;;
17854;SDS011;9053;53.358;6.382;2023-07-24T07:56:28;8.35;;;5.25;;
17854;SDS011;9053;53.358;6.382;2023-07-24T07:59:00;6.10;;;4.18;;
17854;SDS011;9053;53.358;6.382;2023-07-24T08:01:30;6.97;;;4.35;;
17854;SDS011;9053;53.358;6.382;2023-07-24T08:04:00;6.47;;;4.20;;
17854;SDS011;9053;53.358;6.382;2023-07-24T08:06:30;9.23;;;4.93;;
17854;SDS011;9053;53.358;6.382;2023-07-24T08:09:02;8.25;;;4.90;;
17854;SDS011;9053;53.358;6.382;2023-07-24T08:11:32;7.35;;;4.43;;
17854;SDS011;9053;53.358;6.382;2023-07-24T08:14:04;7.07;;;4.10;;
17854;SDS011;9053;53.358;6.382;2023-07-24T08:16:34;5.75;;;4.45;;
17854;SDS011;9053;53.358;6.382;2023-07-24T08:19:04;10.02;;;5.40;;
17854;SDS011;9053;53.358;6.382;2023-07-24T08:21:34;11.68;;;6.05;;
17854;SDS011;9053;53.358;6.382;2023-07-24T08:24:05;9.80;;;4.80;;
17854;SDS011;9053;53.358;6.382;2023-07-24T08:26:35;8.00;;;4.63;;
17854;SDS011;9053;53.358;6.382;2023-07-24T08:29:08;6.82;;;4.20;;
17854;SDS011;9053;53.358;6.382;2023-07-24T08:31:38;9.23;;;5.30;;
17854;SDS011;9053;53.358;6.382;2023-07-24T08:34:08;6.45;;;4.40;;
17854;SDS011;9053;53.358;6.382;2023-07-24T08:36:37;8.13;;;4.60;;
17854;SDS011;9053;53.358;6.382;2023-07-24T08:39:07;5.38;;;4.10;;
17854;SDS011;9053;53.358;6.382;2023-07-24T08:41:37;5.63;;;4.22;;
17854;SDS011;9053;53.358;6.382;2023-07-24T08:44:10;7.25;;;4.72;;
17854;SDS011;9053;53.358;6.382;2023-07-24T08:46:40;7.20;;;4.32;;
17854;SDS011;9053;53.358;6.382;2023-07-24T08:49:12;7.30;;;4.90;;
17854;SDS011;9053;53.358;6.382;2023-07-24T08:51:43;9.60;;;5.28;;
17854;SDS011;9053;53.358;6.382;2023-07-24T08:54:15;9.55;;;5.80;;
17854;SDS011;9053;53.358;6.382;2023-07-24T08:56:46;10.23;;;5.57;;
17854;SDS011;9053;53.358;6.382;2023-07-24T08:59:19;10.60;;;5.50;;
17854;SDS011;9053;53.358;6.382;2023-07-24T09:01:50;9.90;;;4.85;;
17854;SDS011;9053;53.358;6.382;2023-07-24T09:04:21;7.72;;;4.90;;
17854;SDS011;9053;53.358;6.382;2023-07-24T09:06:51;5.57;;;4.03;;
17854;SDS011;9053;53.358;6.382;2023-07-24T09:09:22;5.82;;;4.57;;
17854;SDS011;9053;53.358;6.382;2023-07-24T09:11:52;6.35;;;5.00;;
17854;SDS011;9053;53.358;6.382;2023-07-24T09:14:28;8.23;;;5.35;;
17854;SDS011;9053;53.358;6.382;2023-07-24T09:17:02;10.32;;;5.55;;
17854;SDS011;9053;53.358;6.382;2023-07-24T09:19:33;7.82;;;5.07;;
17854;SDS011;9053;53.358;6.382;2023-07-24T09:22:07;6.65;;;4.30;;
17854;SDS011;9053;53.358;6.382;2023-07-24T09:24:48;6.03;;;4.35;;
17854;SDS011;9053;53.358;6.382;2023-07-24T09:27:19;5.05;;;4.07;;
17854;SDS011;9053;53.358;6.382;2023-07-24T09:29:53;7.82;;;4.28;;
17854;SDS011;9053;53.358;6.382;2023-07-24T09:32:24;7.55;;;4.95;;
17854;SDS011;9053;53.358;6.382;2023-07-24T09:34:57;6.47;;;4.85;;
17854;SDS011;9053;53.358;6.382;2023-07-24T09:37:30;7.18;;;5.20;;
17854;SDS011;9053;53.358;6.382;2023-07-24T09:40:03;7.43;;;4.45;;
17854;SDS011;9053;53.358;6.382;2023-07-24T09:42:34;7.15;;;4.35;;
17854;SDS011;9053;53.358;6.382;2023-07-24T09:45:27;5.70;;;4.45;;
17854;SDS011;9053;53.358;6.382;2023-07-24T09:48:02;9.00;;;5.50;;
17854;SDS011;9053;53.358;6.382;2023-07-24T09:50:37;15.68;;;6.32;;
17854;SDS011;9053;53.358;6.382;2023-07-24T09:53:08;9.68;;;5.43;;
17854;SDS011;9053;53.358;6.382;2023-07-24T09:55:43;7.30;;;4.72;;
17854;SDS011;9053;53.358;6.382;2023-07-24T09:58:19;7.03;;;4.55;;
17854;SDS011;9053;53.358;6.382;2023-07-24T10:00:53;5.75;;;3.92;;
17854;SDS011;9053;53.358;6.382;2023-07-24T10:03:24;9.82;;;5.28;;
17854;SDS011;9053;53.358;6.382;2023-07-24T10:05:54;5.18;;;3.95;;
17854;SDS011;9053;53.358;6.382;2023-07-24T10:08:26;6.50;;;4.05;;
17854;SDS011;9053;53.358;6.382;2023-07-24T10:11:04;7.97;;;4.97;;
17854;SDS011;9053;53.358;6.382;2023-07-24T10:13:35;6.03;;;4.70;;
17854;SDS011;9053;53.358;6.382;2023-07-24T10:16:08;5.65;;;5.10;;
17854;SDS011;9053;53.358;6.382;2023-07-24T10:18:42;8.07;;;5.68;;
17854;SDS011;9053;53.358;6.382;2023-07-24T10:21:13;7.38;;;5.43;;
17854;SDS011;9053;53.358;6.382;2023-07-24T10:23:44;9.23;;;6.38;;
17854;SDS011;9053;53.358;6.382;2023-07-24T10:26:15;5.85;;;5.07;;
17854;SDS011;9053;53.358;6.382;2023-07-24T10:28:47;5.30;;;4.80;;
17854;SDS011;9053;53.358;6.382;2023-07-24T10:31:23;7.38;;;6.05;;
17854;SDS011;9053;53.358;6.382;2023-07-24T10:34:03;7.32;;;6.15;;
17854;SDS011;9053;53.358;6.382;2023-07-24T10:36:33;7.50;;;6.07;;
17854;SDS011;9053;53.358;6.382;2023-07-24T10:39:13;8.32;;;6.85;;
17854;SDS011;9053;53.358;6.382;2023-07-24T10:41:45;7.07;;;5.80;;
17854;SDS011;9053;53.358;6.382;2023-07-24T10:44:15;6.68;;;5.43;;
17854;SDS011;9053;53.358;6.382;2023-07-24T10:46:47;8.85;;;6.93;;
17854;SDS011;9053;53.358;6.382;2023-07-24T10:49:20;5.70;;;5.20;;
17854;SDS011;9053;53.358;6.382;2023-07-24T10:51:54;7.22;;;5.90;;
17854;SDS011;9053;53.358;6.382;2023-07-24T10:54:25;10.13;;;6.75;;
17854;SDS011;9053;53.358;6.382;2023-07-24T10:56:58;7.25;;;6.53;;
17854;SDS011;9053;53.358;6.382;2023-07-24T10:59:35;9.38;;;6.18;;
17854;SDS011;9053;53.358;6.382;2023-07-24T11:02:09;6.63;;;5.82;;
17854;SDS011;9053;53.358;6.382;2023-07-24T11:04:39;7.70;;;5.82;;
17854;SDS011;9053;53.358;6.382;2023-07-24T11:07:09;6.88;;;5.70;;
17854;SDS011;9053;53.358;6.382;2023-07-24T11:09:40;4.93;;;4.35;;
17854;SDS011;9053;53.358;6.382;2023-07-24T11:12:11;7.45;;;5.95;;
17854;SDS011;9053;53.358;6.382;2023-07-24T11:14:46;5.47;;;4.97;;
17854;SDS011;9053;53.358;6.382;2023-07-24T11:17:32;7.18;;;5.75;;
17854;SDS011;9053;53.358;6.382;2023-07-24T11:20:06;6.05;;;5.30;;
17854;SDS011;9053;53.358;6.382;2023-07-24T11:22:40;6.50;;;5.82;;
17854;SDS011;9053;53.358;6.382;2023-07-24T11:25:11;7.32;;;6.00;;
17854;SDS011;9053;53.358;6.382;2023-07-24T11:27:42;5.50;;;4.57;;
17854;SDS011;9053;53.358;6.382;2023-07-24T11:30:18;6.18;;;5.45;;
17854;SDS011;9053;53.358;6.382;2023-07-24T11:32:52;7.10;;;5.07;;
17854;SDS011;9053;53.358;6.382;2023-07-24T11:35:23;5.78;;;4.95;;
17854;SDS011;9053;53.358;6.382;2023-07-24T11:37:53;6.38;;;5.68;;
17854;SDS011;9053;53.358;6.382;2023-07-24T11:40:30;5.15;;;4.63;;
17854;SDS011;9053;53.358;6.382;2023-07-24T11:43:01;6.68;;;5.28;;
17854;SDS011;9053;53.358;6.382;2023-07-24T11:45:39;5.03;;;4.50;;
17854;SDS011;9053;53.358;6.382;2023-07-24T11:48:13;6.68;;;5.60;;
17854;SDS011;9053;53.358;6.382;2023-07-24T11:50:44;6.82;;;5.07;;
17854;SDS011;9053;53.358;6.382;2023-07-24T11:53:21;7.07;;;5.32;;
17854;SDS011;9053;53.358;6.382;2023-07-24T11:55:54;5.85;;;5.07;;
17854;SDS011;9053;53.358;6.382;2023-07-24T11:58:25;6.50;;;4.97;;
17854;SDS011;9053;53.358;6.382;2023-07-24T12:00:56;5.80;;;5.10;;
17854;SDS011;9053;53.358;6.382;2023-07-24T12:03:29;6.40;;;4.85;;
17854;SDS011;9053;53.358;6.382;2023-07-24T12:05:59;4.97;;;4.32;;
17854;SDS011;9053;53.358;6.382;2023-07-24T12:08:31;4.75;;;4.10;;
17854;SDS011;9053;53.358;6.382;2023-07-24T12:11:02;4.43;;;4.03;;
17854;SDS011;9053;53.358;6.382;2023-07-24T12:13:32;5.40;;;3.90;;
17854;SDS011;9053;53.358;6.382;2023-07-24T12:16:03;4.85;;;3.90;;
17854;SDS011;9053;53.358;6.382;2023-07-24T12:18:36;3.75;;;3.45;;
17854;SDS011;9053;53.358;6.382;2023-07-24T12:21:06;3.35;;;3.05;;
17854;SDS011;9053;53.358;6.382;2023-07-24T12:23:35;3.00;;;2.65;;
17854;SDS011;9053;53.358;6.382;2023-07-24T12:26:05;4.07;;;2.80;;
17854;SDS011;9053;53.358;6.382;2023-07-24T12:28:35;3.42;;;2.63;;
17854;SDS011;9053;53.358;6.382;2023-07-24T12:31:05;2.58;;;2.20;;
17854;SDS011;9053;53.358;6.382;2023-07-24T12:33:38;2.58;;;2.00;;
17854;SDS011;9053;53.358;6.382;2023-07-24T12:36:08;2.10;;;1.85;;
17854;SDS011;9053;53.358;6.382;2023-07-24T12:38:38;2.10;;;1.80;;
17854;SDS011;9053;53.358;6.382;2023-07-24T12:41:08;2.13;;;1.67;;
17854;SDS011;9053;53.358;6.382;2023-07-24T12:43:37;3.20;;;1.80;;
17854;SDS011;9053;53.358;6.382;2023-07-24T12:46:07;2.28;;;1.58;;
17854;SDS011;9053;53.358;6.382;2023-07-24T12:48:40;2.13;;;1.40;;
17854;SDS011;9053;53.358;6.382;2023-07-24T12:51:10;2.17;;;1.33;;
17854;SDS011;9053;53.358;6.382;2023-07-24T12:53:40;1.33;;;1.15;;
17854;SDS011;9053;53.358;6.382;2023-07-24T12:56:20;2.53;;;1.48;;
17854;SDS011;9053;53.358;6.382;2023-07-24T12:58:50;4.82;;;1.48;;
17854;SDS011;9053;53.358;6.382;2023-07-24T13:01:20;3.75;;;1.60;;
17854;SDS011;9053;53.358;6.382;2023-07-24T13:03:53;3.13;;;1.45;;
17854;SDS011;9053;53.358;6.382;2023-07-24T13:06:23;3.85;;;1.42;;
17854;SDS011;9053;53.358;6.382;2023-07-24T13:08:54;3.78;;;1.60;;
17854;SDS011;9053;53.358;6.382;2023-07-24T13:11:24;3.67;;;1.80;;
17854;SDS011;9053;53.358;6.382;2023-07-24T13:13:55;5.00;;;1.77;;
17854;SDS011;9053;53.358;6.382;2023-07-24T13:16:25;4.25;;;1.70;;
17854;SDS011;9053;53.358;6.382;2023-07-24T13:19:00;4.68;;;1.58;;
17854;SDS011;9053;53.358;6.382;2023-07-24T13:21:29;3.40;;;1.40;;
17854;SDS011;9053;53.358;6.382;2023-07-24T13:23:59;1.85;;;1.27;;
17854;SDS011;9053;53.358;6.382;2023-07-24T13:26:29;2.55;;;1.40;;
17854;SDS011;9053;53.358;6.382;2023-07-24T13:28:59;3.20;;;1.45;;
17854;SDS011;9053;53.358;6.382;2023-07-24T13:31:32;3.10;;;1.70;;
17854;SDS011;9053;53.358;6.382;2023-07-24T13:34:04;3.38;;;1.60;;
17854;SDS011;9053;53.358;6.382;2023-07-24T13:36:34;6.53;;;2.40;;
17854;SDS011;9053;53.358;6.382;2023-07-24T13:39:04;5.95;;;2.22;;
17854;SDS011;9053;53.358;6.382;2023-07-24T13:41:34;4.53;;;2.17;;
17854;SDS011;9053;53.358;6.382;2023-07-24T13:44:04;6.30;;;2.53;;
17854;SDS011;9053;53.358;6.382;2023-07-24T13:46:34;5.95;;;1.95;;
17854;SDS011;9053;53.358;6.382;2023-07-24T13:49:08;6.30;;;2.10;;
17854;SDS011;9053;53.358;6.382;2023-07-24T13:51:39;4.50;;;2.30;;
17854;SDS011;9053;53.358;6.382;2023-07-24T13:54:09;7.50;;;2.38;;
17854;SDS011;9053;53.358;6.382;2023-07-24T13:56:39;9.18;;;2.20;;
17854;SDS011;9053;53.358;6.382;2023-07-24T13:59:09;4.80;;;2.30;;
17854;SDS011;9053;53.358;6.382;2023-07-24T14:01:38;6.13;;;2.00;;
17854;SDS011;9053;53.358;6.382;2023-07-24T14:04:14;5.72;;;2.38;;
17854;SDS011;9053;53.358;6.382;2023-07-24T14:06:44;4.25;;;2.05;;
17854;SDS011;9053;53.358;6.382;2023-07-24T14:09:14;4.30;;;2.13;;
17854;SDS011;9053;53.358;6.382;2023-07-24T14:11:44;5.45;;;2.10;;
17854;SDS011;9053;53.358;6.382;2023-07-24T14:14:15;5.43;;;2.00;;
17854;SDS011;9053;53.358;6.382;2023-07-24T14:16:47;5.32;;;2.08;;
17854;SDS011;9053;53.358;6.382;2023-07-24T14:19:19;4.90;;;1.88;;
17854;SDS011;9053;53.358;6.382;2023-07-24T14:21:50;5.57;;;1.60;;
17854;SDS011;9053;53.358;6.382;2023-07-24T14:24:20;4.57;;;1.63;;
17854;SDS011;9053;53.358;6.382;2023-07-24T14:26:50;3.70;;;1.73;;
17854;SDS011;9053;53.358;6.382;2023-07-24T14:29:20;4.97;;;1.70;;
17854;SDS011;9053;53.358;6.382;2023-07-24T14:31:49;4.45;;;1.60;;
17854;SDS011;9053;53.358;6.382;2023-07-24T14:34:22;3.17;;;1.48;;
17854;SDS011;9053;53.358;6.382;2023-07-24T14:36:53;6.75;;;1.42;;
17854;SDS011;9053;53.358;6.382;2023-07-24T14:39:23;3.03;;;1.33;;
17854;SDS011;9053;53.358;6.382;2023-07-24T14:41:52;2.13;;;1.25;;
17854;SDS011;9053;53.358;6.382;2023-07-24T14:44:22;2.72;;;1.80;;
17854;SDS011;9053;53.358;6.382;2023-07-24T14:46:52;3.85;;;1.23;;
17854;SDS011;9053;53.358;6.382;2023-07-24T14:49:25;3.33;;;1.55;;
17854;SDS011;9053;53.358;6.382;2023-07-24T14:51:55;4.03;;;1.50;;
17854;SDS011;9053;53.358;6.382;2023-07-24T14:54:25;6.63;;;1.80;;
17854;SDS011;9053;53.358;6.382;2023-07-24T14:56:55;3.28;;;1.60;;
17854;SDS011;9053;53.358;6.382;2023-07-24T14:59:48;2.88;;;1.55;;
17854;SDS011;9053;53.358;6.382;2023-07-24T15:02:18;4.70;;;1.75;;
17854;SDS011;9053;53.358;6.382;2023-07-24T15:04:51;3.78;;;1.92;;
17854;SDS011;9053;53.358;6.382;2023-07-24T15:07:21;4.03;;;2.13;;
17854;SDS011;9053;53.358;6.382;2023-07-24T15:09:51;6.38;;;1.60;;
17854;SDS011;9053;53.358;6.382;2023-07-24T15:12:21;5.32;;;1.80;;
17854;SDS011;9053;53.358;6.382;2023-07-24T15:14:51;6.20;;;2.00;;
17854;SDS011;9053;53.358;6.382;2023-07-24T15:17:21;5.20;;;1.85;;
17854;SDS011;9053;53.358;6.382;2023-07-24T15:19:54;3.75;;;1.83;;
17854;SDS011;9053;53.358;6.382;2023-07-24T15:22:24;7.53;;;1.90;;
17854;SDS011;9053;53.358;6.382;2023-07-24T15:24:54;2.75;;;1.33;;